createdAt,value
2018-10-11T00:00:36.710Z,8.10
2018-10-11T00:03:05.605Z,8.00
2018-10-11T00:05:34.271Z,8.00
2018-10-11T00:08:03.231Z,8.00
2018-10-11T00:10:31.914Z,8.00
2018-10-11T00:13:00.604Z,8.00
2018-10-11T00:15:29.310Z,7.90
2018-10-11T00:17:58.020Z,7.90
2018-10-11T00:20:26.767Z,7.90
2018-10-11T00:22:55.440Z,7.90
2018-10-11T00:25:24.131Z,7.90
2018-10-11T00:27:52.810Z,7.90
2018-10-11T00:30:21.510Z,7.90
2018-10-11T00:32:50.186Z,7.80
2018-10-11T00:35:18.877Z,7.80
2018-10-11T00:37:47.534Z,7.80
2018-10-11T00:40:16.219Z,7.70
2018-10-11T00:42:44.915Z,7.70
2018-10-11T00:45:13.662Z,7.60
2018-10-11T00:47:42.388Z,7.60
2018-10-11T00:50:11.057Z,7.60
2018-10-11T00:52:39.761Z,7.60
2018-10-11T00:55:08.468Z,7.60
2018-10-11T00:57:37.179Z,7.50
2018-10-11T01:00:06.044Z,7.50
2018-10-11T01:02:34.738Z,7.40
2018-10-11T01:05:03.508Z,7.40
2018-10-11T01:07:32.202Z,7.40
2018-10-11T01:10:01.672Z,7.30
2018-10-11T01:12:30.251Z,7.30
2018-10-11T01:14:59.007Z,7.30
2018-10-11T01:17:34.205Z,7.30
2018-10-11T01:20:02.959Z,7.20
2018-10-11T01:22:31.678Z,7.20
2018-10-11T01:25:00.356Z,7.20
2018-10-11T01:27:29.069Z,7.20
2018-10-11T01:29:57.952Z,7.10
2018-10-11T01:32:26.621Z,7.10
2018-10-11T01:34:55.314Z,7.10
2018-10-11T01:37:25.054Z,7.10
2018-10-11T01:39:53.735Z,7.10
2018-10-11T01:42:22.471Z,7.00
2018-10-11T01:44:51.170Z,7.00
2018-10-11T01:47:19.890Z,7.00
2018-10-11T01:49:48.599Z,6.90
2018-10-11T01:52:17.302Z,6.90
2018-10-11T01:54:45.975Z,6.90
2018-10-11T01:57:14.681Z,6.90
2018-10-11T01:59:43.334Z,6.90
2018-10-11T02:02:12.042Z,6.80
2018-10-11T02:04:40.815Z,6.80
2018-10-11T02:07:09.527Z,6.80
2018-10-11T02:09:38.256Z,6.70
2018-10-11T02:12:07.163Z,6.80
2018-10-11T02:14:35.827Z,6.70
2018-10-11T02:17:04.545Z,6.70
2018-10-11T02:19:33.304Z,6.70
2018-10-11T02:22:02.838Z,6.70
2018-10-11T02:24:31.578Z,6.70
2018-10-11T02:27:00.270Z,6.70
2018-10-11T02:29:28.951Z,6.70
2018-10-11T02:31:57.688Z,6.70
2018-10-11T02:34:26.355Z,6.60
2018-10-11T02:36:55.034Z,6.60
2018-10-11T02:39:23.686Z,6.60
2018-10-11T02:41:52.367Z,6.60
2018-10-11T02:44:21.025Z,6.60
2018-10-11T02:46:49.754Z,6.60
2018-10-11T02:49:18.469Z,6.60
2018-10-11T02:51:47.154Z,6.50
2018-10-11T02:54:15.840Z,6.50
2018-10-11T02:56:44.638Z,6.50
2018-10-11T02:59:33.729Z,6.50
2018-10-11T03:02:07.229Z,6.50
2018-10-11T03:04:36.313Z,6.40
2018-10-11T03:07:06.966Z,6.40
2018-10-11T03:09:35.744Z,6.40
2018-10-11T03:12:04.494Z,6.30
2018-10-11T03:14:33.180Z,6.30
2018-10-11T03:17:01.854Z,6.30
2018-10-11T03:19:30.554Z,6.30
2018-10-11T03:21:59.330Z,6.30
2018-10-11T03:24:28.017Z,6.30
2018-10-11T03:26:58.743Z,6.30
2018-10-11T03:29:27.807Z,6.20
2018-10-11T03:31:56.533Z,6.20
2018-10-11T03:34:25.854Z,6.20
2018-10-11T03:36:54.613Z,6.20
2018-10-11T03:39:23.290Z,6.20
2018-10-11T03:41:51.967Z,6.20
2018-10-11T03:44:20.641Z,6.20
2018-10-11T03:46:49.346Z,6.10
2018-10-11T03:49:18.038Z,6.10
2018-10-11T03:51:46.744Z,6.10
2018-10-11T03:54:15.403Z,6.00
2018-10-11T03:56:44.087Z,6.10
2018-10-11T03:59:13.160Z,6.10
2018-10-11T04:01:41.880Z,6.10
2018-10-11T04:04:10.578Z,6.00
2018-10-11T04:06:39.250Z,6.00
2018-10-11T04:09:08.012Z,6.00
2018-10-11T04:11:36.718Z,6.00
2018-10-11T04:14:05.386Z,6.00
2018-10-11T04:16:34.077Z,6.00
2018-10-11T04:19:03.028Z,5.90
2018-10-11T04:21:31.738Z,5.90
2018-10-11T04:24:00.409Z,5.90
2018-10-11T04:26:29.103Z,5.90
2018-10-11T04:28:57.777Z,5.80
2018-10-11T04:31:26.519Z,5.80
2018-10-11T04:33:55.245Z,5.90
2018-10-11T04:36:23.950Z,5.80
2018-10-11T04:38:52.646Z,5.80
2018-10-11T04:41:21.326Z,5.80
2018-10-11T04:43:49.985Z,5.80
2018-10-11T04:46:18.726Z,5.70
2018-10-11T04:48:47.427Z,5.70
2018-10-11T04:51:16.138Z,5.70
2018-10-11T04:53:55.266Z,5.60
2018-10-11T04:56:25.039Z,5.60
2018-10-11T04:58:53.693Z,5.60
2018-10-11T05:01:22.384Z,5.60
2018-10-11T05:03:51.062Z,5.60
2018-10-11T05:06:19.779Z,5.60
2018-10-11T05:08:48.484Z,5.60
2018-10-11T05:11:17.350Z,5.60
2018-10-11T05:13:48.563Z,5.60
2018-10-11T05:16:17.686Z,5.60
2018-10-11T05:18:51.862Z,5.60
2018-10-11T05:21:20.568Z,5.60
2018-10-11T05:23:49.283Z,5.60
2018-10-11T05:26:18.172Z,5.60
2018-10-11T05:28:46.743Z,5.60
2018-10-11T05:31:16.641Z,5.60
2018-10-11T05:33:45.309Z,5.60
2018-10-11T05:36:14.798Z,5.60
2018-10-11T05:38:44.026Z,5.60
2018-10-11T05:41:13.114Z,5.60
2018-10-11T05:43:41.933Z,5.50
2018-10-11T05:46:41.592Z,5.60
2018-10-11T05:49:10.402Z,5.60
2018-10-11T05:51:39.188Z,5.60
2018-10-11T05:54:08.567Z,5.60
2018-10-11T05:56:40.442Z,5.60
2018-10-11T05:59:10.950Z,5.70
2018-10-11T06:01:39.718Z,5.70
2018-10-11T06:04:09.723Z,5.70
2018-10-11T06:06:44.884Z,5.70
2018-10-11T06:09:13.681Z,5.80
2018-10-11T06:11:42.469Z,5.80
2018-10-11T06:14:11.686Z,5.90
2018-10-11T06:16:40.528Z,5.90
2018-10-11T06:19:09.295Z,6.00
2018-10-11T06:21:37.984Z,6.10
2018-10-11T06:24:06.774Z,6.20
2018-10-11T06:26:35.447Z,6.30
2018-10-11T06:29:04.262Z,6.30
2018-10-11T06:31:33.021Z,6.40
2018-10-11T06:34:01.816Z,6.50
2018-10-11T06:36:30.829Z,6.60
2018-10-11T06:38:59.921Z,6.70
2018-10-11T06:41:29.016Z,6.80
2018-10-11T06:43:57.969Z,7.00
2018-10-11T06:46:26.730Z,7.20
2018-10-11T06:48:55.547Z,7.40
2018-10-11T06:51:24.336Z,7.50
2018-10-11T06:53:53.202Z,7.60
2018-10-11T06:56:21.904Z,7.80
2018-10-11T06:58:50.614Z,7.90
2018-10-11T07:01:19.291Z,8.10
2018-10-11T07:03:47.974Z,8.20
2018-10-11T07:06:16.718Z,8.40
2018-10-11T07:08:45.413Z,8.50
2018-10-11T07:11:14.387Z,8.80
2018-10-11T07:13:43.258Z,8.90
2018-10-11T07:16:12.046Z,9.10
2018-10-11T07:18:40.723Z,9.30
2018-10-11T07:21:09.427Z,9.50
2018-10-11T07:23:38.182Z,9.80
2018-10-11T07:26:06.902Z,10.00
2018-10-11T07:28:35.659Z,10.20
2018-10-11T07:31:04.336Z,10.50
2018-10-11T07:33:33.030Z,10.70
2018-10-11T07:36:01.745Z,10.90
2018-10-11T07:38:30.403Z,11.10
2018-10-11T07:40:59.136Z,11.30
2018-10-11T07:43:27.825Z,11.50
2018-10-11T07:45:56.553Z,11.80
2018-10-11T07:48:25.262Z,12.10
2018-10-11T07:50:53.987Z,12.30
2018-10-11T07:53:22.670Z,12.60
2018-10-11T07:55:51.381Z,12.80
2018-10-11T07:58:20.043Z,13.00
2018-10-11T08:00:48.704Z,13.30
2018-10-11T08:03:17.422Z,13.50
2018-10-11T08:05:46.072Z,13.90
2018-10-11T08:08:14.824Z,14.20
2018-10-11T08:10:43.530Z,14.60
2018-10-11T08:13:12.193Z,14.90
2018-10-11T08:15:40.870Z,15.20
2018-10-11T08:18:09.633Z,15.40
2018-10-11T08:20:38.402Z,15.50
2018-10-11T08:23:07.044Z,15.70
2018-10-11T08:25:36.073Z,15.90
2018-10-11T08:28:04.432Z,16.10
2018-10-11T08:30:33.097Z,16.20
2018-10-11T08:33:01.862Z,16.40
2018-10-11T08:35:30.507Z,16.50
2018-10-11T08:37:59.366Z,16.60
2018-10-11T08:40:27.885Z,16.70
2018-10-11T08:42:56.617Z,16.80
2018-10-11T08:45:25.271Z,16.90
2018-10-11T08:47:53.950Z,17.00
2018-10-11T08:50:22.664Z,17.20
2018-10-11T08:52:51.369Z,17.40
2018-10-11T08:55:20.081Z,17.50
2018-10-11T08:57:49.274Z,17.60
2018-10-11T09:00:17.586Z,17.70
2018-10-11T09:02:46.299Z,17.80
2018-10-11T09:05:15.000Z,17.90
2018-10-11T09:07:43.707Z,18.00
2018-10-11T09:10:12.359Z,18.10
2018-10-11T09:12:41.042Z,18.20
2018-10-11T09:15:09.875Z,18.30
2018-10-11T09:17:38.584Z,18.40
2018-10-11T09:20:07.371Z,18.60
2018-10-11T09:22:36.095Z,18.60
2018-10-11T09:25:04.803Z,18.80
2018-10-11T09:27:33.485Z,18.90
2018-10-11T09:30:02.223Z,19.00
2018-10-11T09:32:30.919Z,19.10
2018-10-11T09:34:59.582Z,19.20
2018-10-11T09:37:28.404Z,19.30
2018-10-11T09:39:57.067Z,19.40
2018-10-11T09:42:25.775Z,19.40
2018-10-11T09:44:54.506Z,19.40
2018-10-11T09:47:23.163Z,19.50
2018-10-11T09:49:54.812Z,19.70
2018-10-11T09:52:23.506Z,19.70
2018-10-11T09:54:52.250Z,19.80
2018-10-11T09:57:30.457Z,19.80
2018-10-11T10:00:00.031Z,19.80
2018-10-11T10:02:29.226Z,19.80
2018-10-11T10:05:02.153Z,19.90
2018-10-11T10:07:30.841Z,19.90
2018-10-11T10:09:59.563Z,20.00
2018-10-11T10:12:28.198Z,20.10
2018-10-11T10:14:56.887Z,20.30
2018-10-11T10:17:25.623Z,20.30
2018-10-11T10:19:54.276Z,20.40
2018-10-11T10:22:22.937Z,20.60
2018-10-11T10:24:51.653Z,20.70
2018-10-11T10:27:20.672Z,20.70
2018-10-11T10:29:49.305Z,20.90
2018-10-11T10:32:17.969Z,21.00
2018-10-11T10:34:46.639Z,21.00
2018-10-11T10:37:15.360Z,21.10
2018-10-11T10:39:44.253Z,21.10
2018-10-11T10:42:12.879Z,21.20
2018-10-11T10:44:41.726Z,21.30
2018-10-11T10:47:10.506Z,21.30
2018-10-11T10:49:39.282Z,21.30
2018-10-11T10:52:08.032Z,21.40
2018-10-11T10:54:37.026Z,21.50
2018-10-11T10:57:06.377Z,21.50
2018-10-11T10:59:35.090Z,21.60
2018-10-11T11:02:03.787Z,21.50
2018-10-11T11:04:32.464Z,21.60
2018-10-11T11:07:01.472Z,21.70
2018-10-11T11:09:30.127Z,21.80
2018-10-11T11:11:58.798Z,21.90
2018-10-11T11:14:27.488Z,22.00
2018-10-11T11:16:56.149Z,22.10
2018-10-11T11:19:24.821Z,22.30
2018-10-11T11:21:53.534Z,22.40
2018-10-11T11:24:22.178Z,22.40
2018-10-11T11:26:50.926Z,22.50
2018-10-11T11:29:19.668Z,22.50
2018-10-11T11:31:48.314Z,22.60
2018-10-11T11:34:16.994Z,22.70
2018-10-11T11:36:45.666Z,22.80
2018-10-11T11:39:14.441Z,23.00
2018-10-11T11:41:43.082Z,23.10
2018-10-11T11:44:11.767Z,23.30
2018-10-11T11:46:40.425Z,23.40
2018-10-11T11:49:09.124Z,23.50
2018-10-11T11:51:37.791Z,23.70
2018-10-11T11:54:10.746Z,23.90
2018-10-11T11:56:39.410Z,24.10
2018-10-11T11:59:08.115Z,24.30
2018-10-11T12:01:36.781Z,24.50
2018-10-11T12:04:05.517Z,24.70
2018-10-11T12:06:34.174Z,24.90
2018-10-11T12:09:03.214Z,25.00
2018-10-11T12:11:31.870Z,24.90
2018-10-11T12:14:00.579Z,25.00
2018-10-11T12:16:29.296Z,25.00
2018-10-11T12:18:57.938Z,25.20
2018-10-11T12:21:26.599Z,25.20
2018-10-11T12:23:55.304Z,25.30
2018-10-11T12:26:24.060Z,25.40
2018-10-11T12:28:52.801Z,25.70
2018-10-11T12:31:21.503Z,26.00
2018-10-11T12:33:50.706Z,26.30
2018-10-11T12:36:19.501Z,26.60
2018-10-11T12:38:48.200Z,26.80
2018-10-11T12:41:16.805Z,27.00
2018-10-11T12:43:46.231Z,27.40
2018-10-11T12:46:14.224Z,27.50
2018-10-11T12:48:42.887Z,27.60
2018-10-11T12:51:11.570Z,27.70
2018-10-11T12:53:44.330Z,27.70
2018-10-11T12:56:09.005Z,27.90
2018-10-11T12:58:37.655Z,27.80
2018-10-11T13:01:06.481Z,27.50
2018-10-11T13:03:35.082Z,27.70
2018-10-11T13:06:03.766Z,27.70
2018-10-11T13:08:32.467Z,27.90
2018-10-11T13:11:01.583Z,28.10
2018-10-11T13:13:30.224Z,28.20
2018-10-11T13:16:01.398Z,28.30
2018-10-11T13:18:28.173Z,28.40
2018-10-11T13:20:56.831Z,28.60
2018-10-11T13:23:25.530Z,28.70
2018-10-11T13:25:54.169Z,29.00
2018-10-11T13:28:22.838Z,29.10
2018-10-11T13:30:52.012Z,29.10
2018-10-11T13:33:21.153Z,28.60
2018-10-11T13:35:49.807Z,28.20
2018-10-11T13:38:18.514Z,27.70
2018-10-11T13:40:47.338Z,27.10
2018-10-11T13:43:15.905Z,26.70
2018-10-11T13:45:44.611Z,26.40
2018-10-11T13:48:13.260Z,26.20
2018-10-11T13:50:41.931Z,26.00
2018-10-11T13:53:18.365Z,26.00
2018-10-11T13:55:46.939Z,25.90
2018-10-11T13:58:10.943Z,26.10
2018-10-11T14:00:39.639Z,26.60
2018-10-11T14:03:08.609Z,27.10
2018-10-11T14:05:37.382Z,27.70
2018-10-11T14:08:06.084Z,28.40
2018-10-11T14:10:34.830Z,28.80
2018-10-11T14:13:09.225Z,29.10
2018-10-11T14:15:32.209Z,29.50
2018-10-11T14:18:06.215Z,29.60
2018-10-11T14:20:29.734Z,29.60
2018-10-11T14:22:58.387Z,29.80
2018-10-11T14:25:27.084Z,29.70
2018-10-11T14:27:55.729Z,29.60
2018-10-11T14:30:24.409Z,30.10
2018-10-11T14:32:53.539Z,30.20
2018-10-11T14:35:22.206Z,30.10
2018-10-11T14:37:50.872Z,30.20
2018-10-11T14:40:19.606Z,30.10
2018-10-11T14:42:48.506Z,30.10
2018-10-11T14:45:20.394Z,30.20
2018-10-11T14:47:49.071Z,30.50
2018-10-11T14:50:17.751Z,30.30
2018-10-11T14:52:46.412Z,30.30
2018-10-11T14:55:15.119Z,30.20
2018-10-11T14:57:43.834Z,30.40
2018-10-11T15:00:12.540Z,29.90
2018-10-11T15:02:41.277Z,29.80
2018-10-11T15:05:09.911Z,30.30
2018-10-11T15:07:38.618Z,30.50
2018-10-11T15:10:07.300Z,30.40
2018-10-11T15:12:35.951Z,30.40
2018-10-11T15:15:04.999Z,30.40
2018-10-11T15:17:33.655Z,30.20
2018-10-11T15:20:02.300Z,30.00
2018-10-11T15:22:31.002Z,29.40
2018-10-11T15:24:59.650Z,28.70
2018-10-11T15:27:28.306Z,27.90
2018-10-11T15:29:57.043Z,27.10
2018-10-11T15:32:25.658Z,26.30
2018-10-11T15:34:54.527Z,25.70
2018-10-11T15:37:23.283Z,25.20
2018-10-11T15:39:52.029Z,24.70
2018-10-11T15:42:27.448Z,24.40
2018-10-11T15:44:56.167Z,24.10
2018-10-11T15:47:24.826Z,23.70
2018-10-11T15:49:53.507Z,23.60
2018-10-11T15:52:22.236Z,23.60
2018-10-11T15:54:50.895Z,23.80
2018-10-11T15:57:19.587Z,24.20
2018-10-11T15:59:48.259Z,24.30
2018-10-11T16:02:17.465Z,24.00
2018-10-11T16:04:46.554Z,23.60
2018-10-11T16:07:15.623Z,23.20
2018-10-11T16:09:44.792Z,22.80
2018-10-11T16:12:13.895Z,22.40
2018-10-11T16:14:42.583Z,22.10
2018-10-11T16:17:11.279Z,21.80
2018-10-11T16:19:39.952Z,21.60
2018-10-11T16:22:08.657Z,21.40
2018-10-11T16:24:37.397Z,21.20
2018-10-11T16:27:06.070Z,21.00
2018-10-11T16:29:34.722Z,20.90
2018-10-11T16:32:03.759Z,20.70
2018-10-11T16:34:32.546Z,20.60
2018-10-11T16:37:01.541Z,20.40
2018-10-11T16:39:30.233Z,20.20
2018-10-11T16:41:58.894Z,20.00
2018-10-11T16:44:27.758Z,19.80
2018-10-11T16:46:56.446Z,19.70
2018-10-11T16:49:25.090Z,19.50
2018-10-11T16:51:53.789Z,19.30
2018-10-11T16:54:22.470Z,19.10
2018-10-11T16:56:51.148Z,18.90
2018-10-11T16:59:19.842Z,18.70
2018-10-11T17:01:48.505Z,18.50
2018-10-11T17:04:17.402Z,18.40
2018-10-11T17:06:45.946Z,18.30
2018-10-11T17:09:14.790Z,18.10
2018-10-11T17:11:43.503Z,17.90
2018-10-11T17:14:12.291Z,17.80
2018-10-11T17:16:41.088Z,17.60
2018-10-11T17:19:09.798Z,17.40
2018-10-11T17:21:38.550Z,17.30
2018-10-11T17:24:07.627Z,17.20
2018-10-11T17:26:36.751Z,17.00
2018-10-11T17:29:05.453Z,16.90
2018-10-11T17:31:34.146Z,16.80
2018-10-11T17:34:03.403Z,16.60
2018-10-11T17:36:32.229Z,16.50
2018-10-11T17:39:01.772Z,16.40
2018-10-11T17:41:30.512Z,16.30
2018-10-11T17:43:59.264Z,16.20
2018-10-11T17:46:28.041Z,16.00
2018-10-11T17:48:56.719Z,16.00
2018-10-11T17:51:25.698Z,15.80
2018-10-11T17:53:54.465Z,15.70
2018-10-11T17:56:23.168Z,15.50
2018-10-11T17:58:51.938Z,15.50
2018-10-11T18:01:20.590Z,15.40
2018-10-11T18:03:49.274Z,15.30
2018-10-11T18:06:22.275Z,15.20
2018-10-11T18:08:51.062Z,15.10
2018-10-11T18:11:19.893Z,14.90
2018-10-11T18:13:48.595Z,14.80
2018-10-11T18:16:17.347Z,14.80
2018-10-11T18:18:46.068Z,14.70
2018-10-11T18:21:14.739Z,14.60
2018-10-11T18:23:43.474Z,14.50
2018-10-11T18:26:12.243Z,14.40
2018-10-11T18:28:40.938Z,14.30
2018-10-11T18:31:09.674Z,14.30
2018-10-11T18:33:38.354Z,14.20
2018-10-11T18:36:07.049Z,14.20
2018-10-11T18:38:35.790Z,14.10
2018-10-11T18:41:04.453Z,14.00
2018-10-11T18:43:33.177Z,14.00
2018-10-11T18:46:01.846Z,13.90
2018-10-11T18:48:30.551Z,13.80
2018-10-11T18:50:59.245Z,13.80
2018-10-11T18:53:27.921Z,13.70
2018-10-11T18:55:56.588Z,13.60
2018-10-11T18:58:25.388Z,13.50
2018-10-11T19:00:54.089Z,13.50
2018-10-11T19:03:22.794Z,13.40
2018-10-11T19:05:51.479Z,13.40
2018-10-11T19:08:20.154Z,13.30
2018-10-11T19:10:48.847Z,13.30
2018-10-11T19:13:17.595Z,13.20
2018-10-11T19:15:46.258Z,13.20
2018-10-11T19:18:14.978Z,13.10
2018-10-11T19:20:43.678Z,13.10
2018-10-11T19:23:12.361Z,13.10
2018-10-11T19:25:41.007Z,13.00
2018-10-11T19:28:09.732Z,13.00
2018-10-11T19:30:38.394Z,13.00
2018-10-11T19:33:07.084Z,12.90
2018-10-11T19:35:35.730Z,12.90
2018-10-11T19:38:04.683Z,12.80
2018-10-11T19:40:33.325Z,12.80
2018-10-11T19:43:02.904Z,12.80
2018-10-11T19:45:31.582Z,12.80
2018-10-11T19:48:00.249Z,12.70
2018-10-11T19:50:28.909Z,12.60
2018-10-11T19:52:57.654Z,12.60
2018-10-11T19:55:26.335Z,12.60
2018-10-11T19:57:54.997Z,12.50
2018-10-11T20:00:23.674Z,12.50
2018-10-11T20:02:52.414Z,12.50
2018-10-11T20:05:21.093Z,12.40
2018-10-11T20:07:49.855Z,12.40
2018-10-11T20:10:18.526Z,12.40
2018-10-11T20:12:47.178Z,12.30
2018-10-11T20:15:15.903Z,12.30
2018-10-11T20:17:44.584Z,12.20
2018-10-11T20:20:13.387Z,12.10
2018-10-11T20:22:42.122Z,12.10
2018-10-11T20:25:10.794Z,12.10
2018-10-11T20:27:39.511Z,12.10
2018-10-11T20:30:08.280Z,12.10
2018-10-11T20:32:36.947Z,12.00
2018-10-11T20:35:05.689Z,12.10
2018-10-11T20:37:34.360Z,12.00
2018-10-11T20:40:03.217Z,12.00
2018-10-11T20:42:31.882Z,12.00
2018-10-11T20:45:00.526Z,11.90
2018-10-11T20:47:29.226Z,11.90
2018-10-11T20:49:57.987Z,11.90
2018-10-11T20:52:26.667Z,11.90
2018-10-11T20:54:55.297Z,11.90
2018-10-11T20:57:24.074Z,11.90
2018-10-11T20:59:52.694Z,11.90
2018-10-11T21:02:21.366Z,11.90
2018-10-11T21:04:50.019Z,11.90
2018-10-11T21:07:18.713Z,11.90
2018-10-11T21:09:47.350Z,11.90
2018-10-11T21:12:16.083Z,11.90
2018-10-11T21:14:44.746Z,11.90
2018-10-11T21:17:13.491Z,11.90
2018-10-11T21:19:42.185Z,12.00
2018-10-11T21:22:10.853Z,12.00
2018-10-11T21:24:39.504Z,12.00
2018-10-11T21:27:08.282Z,12.00
2018-10-11T21:29:36.983Z,12.00
2018-10-11T21:32:05.661Z,12.00
2018-10-11T21:34:34.303Z,12.10
2018-10-11T21:37:03.339Z,12.10
2018-10-11T21:39:32.014Z,12.10
2018-10-11T21:42:00.702Z,12.10
2018-10-11T21:44:29.333Z,12.10
2018-10-11T21:46:58.030Z,12.20
2018-10-11T21:49:26.715Z,12.20
2018-10-11T21:51:55.411Z,12.20
2018-10-11T21:54:24.071Z,12.30
2018-10-11T21:56:52.762Z,12.30
2018-10-11T21:59:21.391Z,12.30
2018-10-11T22:01:50.094Z,12.30
2018-10-11T22:04:18.739Z,12.40
2018-10-11T22:06:47.475Z,12.40
2018-10-11T22:09:16.169Z,12.40
2018-10-11T22:11:44.921Z,12.50
2018-10-11T22:14:13.605Z,12.50
2018-10-11T22:16:42.263Z,12.50
2018-10-11T22:19:10.925Z,12.50
2018-10-11T22:21:39.620Z,12.50
2018-10-11T22:24:08.546Z,12.50
2018-10-11T22:26:37.221Z,12.50
2018-10-11T22:29:05.877Z,12.50
2018-10-11T22:31:34.604Z,12.50
2018-10-11T22:34:03.324Z,12.60
2018-10-11T22:36:32.053Z,12.50
2018-10-11T22:39:00.789Z,12.50
2018-10-11T22:41:29.523Z,12.50
2018-10-11T22:44:04.014Z,12.50
2018-10-11T22:46:32.870Z,12.40
2018-10-11T22:49:01.610Z,12.50
2018-10-11T22:51:30.308Z,12.50
2018-10-11T22:53:58.976Z,12.50
2018-10-11T22:56:27.680Z,12.50
2018-10-11T22:58:56.403Z,12.50
2018-10-11T23:01:25.087Z,12.50
2018-10-11T23:03:53.822Z,12.50
2018-10-11T23:06:22.502Z,12.60
2018-10-11T23:08:51.189Z,12.60
2018-10-11T23:11:19.907Z,12.60
2018-10-11T23:13:48.560Z,12.60
2018-10-11T23:16:17.266Z,12.60
2018-10-11T23:18:45.978Z,12.60
2018-10-11T23:21:14.652Z,12.60
2018-10-11T23:23:44.112Z,12.60
2018-10-11T23:26:12.832Z,12.80
2018-10-11T23:28:41.753Z,12.70
2018-10-11T23:31:11.087Z,12.70
2018-10-11T23:33:46.519Z,12.70
2018-10-11T23:36:15.208Z,12.70
2018-10-11T23:38:43.918Z,12.70
2018-10-11T23:41:12.615Z,12.70
2018-10-11T23:43:41.265Z,12.70
2018-10-11T23:46:09.963Z,12.70
2018-10-11T23:48:38.761Z,12.70
2018-10-11T23:51:07.465Z,12.70
2018-10-11T23:53:36.134Z,12.80
2018-10-11T23:56:04.919Z,12.80
2018-10-11T23:58:33.579Z,12.90
